Time;durP1;ratioP1;P1;durP2;ratioP2;P2;SDS_P1;SDS_P2;PMS_P1;PMS_P2;Temp;Humidity;BMP_temperature;BMP_pressure;BME280_temperature;BME280_humidity;BME280_pressure;Samples;Min_cycle;Max_cycle;Signal;HPM_P1;HPM_P2
2021/04/19 00:02:04;;;;;;;8.4;5.3;;;;;;;;;;;;;
2021/04/19 00:04:30;;;;;;;9;5.6;;;;;;;;;;;;;
2021/04/19 00:06:55;;;;;;;7.8;5.3;;;;;;;;;;;;;
2021/04/19 00:09:21;;;;;;;11.8;6;;;;;;;;;;;;;
2021/04/19 00:11:46;;;;;;;7.8;5.2;;;;;;;;;;;;;
2021/04/19 00:14:14;;;;;;;8;4.8;;;;;;;;;;;;;
2021/04/19 00:16:39;;;;;;;8;5.6;;;;;;;;;;;;;
2021/04/19 00:19:05;;;;;;;9.3;5.6;;;;;;;;;;;;;
2021/04/19 00:21:30;;;;;;;8.2;5.6;;;;;;;;;;;;;
2021/04/19 00:23:59;;;;;;;9.4;5.6;;;;;;;;;;;;;
2021/04/19 00:26:24;;;;;;;10;5.9;;;;;;;;;;;;;
2021/04/19 00:28:49;;;;;;;6.7;5.1;;;;;;;;;;;;;
2021/04/19 00:31:14;;;;;;;10;6.1;;;;;;;;;;;;;
2021/04/19 00:33:39;;;;;;;8.5;5.8;;;;;;;;;;;;;
2021/04/19 00:36:04;;;;;;;10.8;5.5;;;;;;;;;;;;;
2021/04/19 00:38:30;;;;;;;7.1;5;;;;;;;;;;;;;
2021/04/19 00:40:55;;;;;;;9.3;5.6;;;;;;;;;;;;;
2021/04/19 00:43:21;;;;;;;9;5.4;;;;;;;;;;;;;
2021/04/19 00:45:47;;;;;;;8.7;5.2;;;;;;;;;;;;;
2021/04/19 00:48:12;;;;;;;9.4;6;;;;;;;;;;;;;
2021/04/19 00:50:37;;;;;;;8.4;5;;;;;;;;;;;;;
2021/04/19 00:53:03;;;;;;;13.3;5.8;;;;;;;;;;;;;
2021/04/19 00:55:28;;;;;;;7.6;6;;;;;;;;;;;;;
2021/04/19 00:57:54;;;;;;;9.1;5.6;;;;;;;;;;;;;
2021/04/19 01:00:19;;;;;;;11.4;6.7;;;;;;;;;;;;;
2021/04/19 01:02:46;;;;;;;9.8;5.4;;;;;;;;;;;;;
2021/04/19 01:05:11;;;;;;;8.8;6.2;;;;;;;;;;;;;
2021/04/19 01:07:37;;;;;;;6.6;5.2;;;;;;;;;;;;;
2021/04/19 01:10:02;;;;;;;10.6;5.7;;;;;;;;;;;;;
2021/04/19 01:12:30;;;;;;;10.1;6.3;;;;;;;;;;;;;
2021/04/19 01:14:56;;;;;;;6.9;5.1;;;;;;;;;;;;;
2021/04/19 01:17:25;;;;;;;8.8;5.8;;;;;;;;;;;;;
2021/04/19 01:19:52;;;;;;;11.4;6.4;;;;;;;;;;;;;
2021/04/19 01:22:18;;;;;;;8;5.5;;;;;;;;;;;;;
2021/04/19 01:24:44;;;;;;;10;5.9;;;;;;;;;;;;;
2021/04/19 01:27:10;;;;;;;9.1;5.4;;;;;;;;;;;;;
2021/04/19 01:29:36;;;;;;;8.8;5.6;;;;;;;;;;;;;
2021/04/19 01:32:01;;;;;;;9.1;6.1;;;;;;;;;;;;;
2021/04/19 01:34:27;;;;;;;8.4;5.9;;;;;;;;;;;;;
2021/04/19 01:36:52;;;;;;;7.9;5.5;;;;;;;;;;;;;
2021/04/19 01:39:18;;;;;;;9.6;6.3;;;;;;;;;;;;;
2021/04/19 01:41:43;;;;;;;7.9;5.8;;;;;;;;;;;;;
2021/04/19 01:44:09;;;;;;;10.5;5.9;;;;;;;;;;;;;
2021/04/19 01:46:34;;;;;;;8.5;5.7;;;;;;;;;;;;;
2021/04/19 01:49:00;;;;;;;8.8;5;;;;;;;;;;;;;
2021/04/19 01:51:25;;;;;;;10.9;6.2;;;;;;;;;;;;;
2021/04/19 01:53:51;;;;;;;10.2;6;;;;;;;;;;;;;
2021/04/19 01:56:16;;;;;;;10;6;;;;;;;;;;;;;
2021/04/19 01:58:42;;;;;;;11.7;6.4;;;;;;;;;;;;;
2021/04/19 02:01:07;;;;;;;11.3;6.7;;;;;;;;;;;;;
2021/04/19 02:03:33;;;;;;;11.9;5.8;;;;;;;;;;;;;
2021/04/19 02:05:58;;;;;;;9.9;5.6;;;;;;;;;;;;;
2021/04/19 02:08:23;;;;;;;6.2;5.1;;;;;;;;;;;;;
2021/04/19 02:10:48;;;;;;;12.3;6.2;;;;;;;;;;;;;
2021/04/19 02:13:14;;;;;;;14.8;6.1;;;;;;;;;;;;;
2021/04/19 02:15:44;;;;;;;6.4;5;;;;;;;;;;;;;
2021/04/19 02:18:09;;;;;;;8.5;5.4;;;;;;;;;;;;;
2021/04/19 02:20:35;;;;;;;9.4;5.4;;;;;;;;;;;;;
2021/04/19 02:23:00;;;;;;;9.7;6.2;;;;;;;;;;;;;
2021/04/19 02:25:25;;;;;;;13.7;6.9;;;;;;;;;;;;;
2021/04/19 02:27:51;;;;;;;9.9;6.5;;;;;;;;;;;;;
2021/04/19 02:30:16;;;;;;;12;6.5;;;;;;;;;;;;;
2021/04/19 02:32:43;;;;;;;11.3;6.1;;;;;;;;;;;;;
2021/04/19 02:35:08;;;;;;;9;6.1;;;;;;;;;;;;;
2021/04/19 02:37:34;;;;;;;8.4;5.3;;;;;;;;;;;;;
2021/04/19 02:39:59;;;;;;;9.5;6;;;;;;;;;;;;;
2021/04/19 02:42:24;;;;;;;12.1;5.5;;;;;;;;;;;;;
2021/04/19 02:44:49;;;;;;;12.3;6.5;;;;;;;;;;;;;
2021/04/19 02:47:16;;;;;;;7.8;5.4;;;;;;;;;;;;;
2021/04/19 02:49:41;;;;;;;11;5.5;;;;;;;;;;;;;
2021/04/19 02:52:07;;;;;;;11.8;5.7;;;;;;;;;;;;;
2021/04/19 02:54:33;;;;;;;9.9;5.8;;;;;;;;;;;;;
2021/04/19 02:56:58;;;;;;;8.8;5.8;;;;;;;;;;;;;
2021/04/19 02:59:23;;;;;;;7.1;5.7;;;;;;;;;;;;;
2021/04/19 03:01:49;;;;;;;7.8;6;;;;;;;;;;;;;
2021/04/19 03:04:14;;;;;;;11;6.3;;;;;;;;;;;;;
2021/04/19 03:06:40;;;;;;;11.8;6.6;;;;;;;;;;;;;
2021/04/19 03:09:05;;;;;;;9.4;6.1;;;;;;;;;;;;;
2021/04/19 03:11:30;;;;;;;7.4;5.6;;;;;;;;;;;;;
2021/04/19 03:13:56;;;;;;;9.4;5.8;;;;;;;;;;;;;
2021/04/19 03:16:21;;;;;;;8.6;6;;;;;;;;;;;;;
2021/04/19 03:18:46;;;;;;;9.6;5.5;;;;;;;;;;;;;
2021/04/19 03:21:11;;;;;;;9;5.8;;;;;;;;;;;;;
2021/04/19 03:23:37;;;;;;;10.5;6.6;;;;;;;;;;;;;
2021/04/19 03:26:02;;;;;;;8.5;5.9;;;;;;;;;;;;;
2021/04/19 03:28:28;;;;;;;9.7;6;;;;;;;;;;;;;
2021/04/19 03:30:53;;;;;;;10.8;5.7;;;;;;;;;;;;;
2021/04/19 03:33:19;;;;;;;12.1;6.6;;;;;;;;;;;;;
2021/04/19 03:35:44;;;;;;;9.6;5.8;;;;;;;;;;;;;
2021/04/19 03:38:16;;;;;;;13.2;6.6;;;;;;;;;;;;;
2021/04/19 03:40:42;;;;;;;7.9;6.3;;;;;;;;;;;;;
2021/04/19 03:43:07;;;;;;;9.4;5.7;;;;;;;;;;;;;
2021/04/19 03:45:32;;;;;;;7.9;6.2;;;;;;;;;;;;;
2021/04/19 03:47:58;;;;;;;9.5;6.3;;;;;;;;;;;;;
2021/04/19 03:50:23;;;;;;;8.6;5.9;;;;;;;;;;;;;
2021/04/19 03:52:50;;;;;;;9;5.3;;;;;;;;;;;;;
2021/04/19 03:55:14;;;;;;;11.3;5.9;;;;;;;;;;;;;
2021/04/19 03:57:39;;;;;;;8.5;5;;;;;;;;;;;;;
2021/04/19 04:00:07;;;;;;;10.9;6;;;;;;;;;;;;;
2021/04/19 04:02:34;;;;;;;10.7;6.5;;;;;;;5.64;83.60156;938.6067;;;;
2021/04/19 04:04:59;;;;;;;10.8;6.2;;;;;;;5.54;84.02246;938.5916;;;;
2021/04/19 04:07:24;;;;;;;9.3;6.3;;;;;;;5.39;84.75879;938.5641;;;;
2021/04/19 04:09:49;;;;;;;7.7;5.3;;;;;;;5.28;84.87305;938.5482;;;;
2021/04/19 04:12:14;;;;;;;10.1;6.4;;;;;;;5.24;85.26953;938.5715;;;;
2021/04/19 04:14:40;;;;;;;11;6.5;;;;;;;5.22;85.25488;938.5212;;;;
2021/04/19 04:17:06;;;;;;;9.8;6.6;;;;;;;5.05;85.83105;938.5711;;;;
2021/04/19 04:19:31;;;;;;;13.2;6.9;;;;;;;4.88;86.56348;938.5594;;;;
2021/04/19 04:21:56;;;;;;;11.1;6.4;;;;;;;5.07;86.50977;938.6088;;;;
2021/04/19 04:24:22;;;;;;;13;7;;;;;;;5.16;86.20313;938.5839;;;;
2021/04/19 04:26:48;;;;;;;10.7;6.5;;;;;;;5.22;85.91113;938.5553;;;;
2021/04/19 04:29:14;;;;;;;11.9;7.6;;;;;;;5.36;85.84766;938.5514;;;;
2021/04/19 04:31:39;;;;;;;14.2;7.1;;;;;;;5.26;85.76074;938.5644;;;;
2021/04/19 04:34:06;;;;;;;8;6.1;;;;;;;5.2;85.40918;938.5496;;;;
2021/04/19 04:36:31;;;;;;;11.4;6;;;;;;;5.17;85.49609;938.5733;;;;
2021/04/19 04:38:56;;;;;;;10.9;6.4;;;;;;;5.26;85.35449;938.6071;;;;
2021/04/19 04:41:21;;;;;;;9.5;6;;;;;;;5.42;85.37598;938.5907;;;;
2021/04/19 04:43:48;;;;;;;9.6;6.4;;;;;;;5.62;84.89648;938.6481;;;;
2021/04/19 04:46:13;;;;;;;8.9;6.2;;;;;;;5.58;84.60449;938.6528;;;;
2021/04/19 04:48:41;;;;;;;9.8;5.1;;;;;;;5.74;84.24219;938.5842;;;;
2021/04/19 04:51:06;;;;;;;9.9;5.6;;;;;;;5.8;83.84766;938.593;;;;
2021/04/19 04:53:35;;;;;;;8;6;;;;;;;5.82;83.6709;938.6033;;;;
2021/04/19 04:55:57;;;;;;;11.5;5.9;;;;;;;5.86;83.54395;938.625;;;;
2021/04/19 04:58:22;;;;;;;8.9;5.6;;;;;;;5.91;83.43945;938.5539;;;;
2021/04/19 05:00:47;;;;;;;10.6;5.7;;;;;;;5.93;83.32129;938.6225;;;;
2021/04/19 05:03:15;;;;;;;8.1;5.9;;;;;;;6;83.06152;938.5382;;;;
2021/04/19 05:05:39;;;;;;;8.3;5.8;;;;;;;5.89;83.35742;938.6194;;;;
2021/04/19 05:08:05;;;;;;;9;6.3;;;;;;;5.73;83.95801;938.6653;;;;
2021/04/19 05:10:30;;;;;;;10.5;5.9;;;;;;;5.83;84.11133;938.6231;;;;
2021/04/19 05:12:58;;;;;;;9.2;6.3;;;;;;;5.94;83.69336;938.6479;;;;
2021/04/19 05:15:27;;;;;;;13.6;7;;;;;;;5.99;83.45605;938.6208;;;;
2021/04/19 05:17:54;;;;;;;9.1;5.8;;;;;;;6.1;83.01367;938.6637;;;;
2021/04/19 05:20:20;;;;;;;12.1;6.7;;;;;;;6.19;82.5;938.6533;;;;
2021/04/19 05:22:45;;;;;;;8.4;5.8;;;;;;;6.21;81.62109;938.6519;;;;
2021/04/19 05:25:12;;;;;;;11.5;6.1;;;;;;;6.22;81.63477;938.7208;;;;
2021/04/19 05:27:37;;;;;;;8.4;6.2;;;;;;;6.25;81.84473;938.6987;;;;
2021/04/19 05:30:02;;;;;;;10;6.1;;;;;;;6.37;81.52637;938.7531;;;;
2021/04/19 05:32:27;;;;;;;10;6;;;;;;;6.39;80.94336;938.7672;;;;
2021/04/19 05:34:55;;;;;;;8.9;6.3;;;;;;;6.33;80.79785;938.7878;;;;
2021/04/19 05:37:20;;;;;;;11.6;7.1;;;;;;;6.25;81.47168;938.8006;;;;
2021/04/19 05:39:45;;;;;;;13.3;7.5;;;;;;;6.16;81.97266;938.79;;;;
2021/04/19 05:42:10;;;;;;;11;6.1;;;;;;;6.09;81.63281;938.8705;;;;
2021/04/19 05:44:36;;;;;;;8.7;6.1;;;;;;;6.1;81.87207;938.8416;;;;
2021/04/19 05:47:01;;;;;;;11.4;6.4;;;;;;;6.21;81.95117;938.9167;;;;
2021/04/19 05:49:27;;;;;;;11.4;6.4;;;;;;;6.11;81.7832;938.9136;;;;
2021/04/19 05:51:53;;;;;;;13.9;6.5;;;;;;;6.17;82.58691;938.9192;;;;
2021/04/19 05:54:18;;;;;;;10.2;6.2;;;;;;;6.3;81.5498;938.9364;;;;
2021/04/19 05:56:43;;;;;;;8.9;6.9;;;;;;;6.25;81.52832;938.9858;;;;
2021/04/19 05:59:08;;;;;;;10.3;6.1;;;;;;;6.33;81.97363;938.9064;;;;
2021/04/19 06:01:33;;;;;;;14;7.4;;;;;;;6.56;81.6543;939.0201;;;;
2021/04/19 06:03:59;;;;;;;11.4;6.8;;;;;;;6.46;80.2334;938.9241;;;;
2021/04/19 06:06:24;;;;;;;25.7;15;;;;;;;6.39;81.30566;939.0258;;;;
2021/04/19 06:08:49;;;;;;;19.7;9.9;;;;;;;6.63;81.47656;938.9865;;;;
2021/04/19 06:11:14;;;;;;;11;7.4;;;;;;;6.79;80.78125;939.0237;;;;
2021/04/19 06:13:40;;;;;;;9.7;6.3;;;;;;;6.89;78.66113;939.0178;;;;
2021/04/19 06:16:05;;;;;;;11.2;6.7;;;;;;;6.8;77.18359;939.0359;;;;
2021/04/19 06:18:30;;;;;;;12.7;7.5;;;;;;;6.82;77.30176;939.002;;;;
2021/04/19 06:20:55;;;;;;;11.5;7.3;;;;;;;6.88;78.60156;938.9289;;;;
2021/04/19 06:23:22;;;;;;;10.5;6;;;;;;;7.01;76.89551;939.0211;;;;
2021/04/19 06:25:47;;;;;;;10.6;5.9;;;;;;;7.18;76.45898;938.9822;;;;
2021/04/19 06:28:15;;;;;;;9.7;6.2;;;;;;;7.33;76.97461;939.024;;;;
2021/04/19 06:30:41;;;;;;;13.7;6.8;;;;;;;7.27;77.39453;938.9434;;;;
2021/04/19 06:33:05;;;;;;;10.1;6.7;;;;;;;7.41;76.7627;939.0253;;;;
2021/04/19 06:35:30;;;;;;;11.5;6.8;;;;;;;7.61;76.38867;939.0344;;;;
2021/04/19 06:37:57;;;;;;;10.8;6.7;;;;;;;7.76;75.03125;939.0158;;;;
2021/04/19 06:40:21;;;;;;;13;6.4;;;;;;;7.94;73.76953;939.0444;;;;
2021/04/19 06:42:47;;;;;;;12;5.3;;;;;;;7.98;73.20996;938.9911;;;;
2021/04/19 06:45:13;;;;;;;8.2;5.9;;;;;;;8.01;72.42969;938.998;;;;
2021/04/19 06:47:46;;;;;;;10.2;6.4;;;;;;;8.22;72.77246;939.0076;;;;
2021/04/19 06:50:11;;;;;;;11.1;6.4;;;;;;;8.05;72.10742;939.0245;;;;
2021/04/19 06:52:36;;;;;;;10.6;6.2;;;;;;;8.26;71.88184;938.9892;;;;
2021/04/19 06:55:01;;;;;;;10.5;5.8;;;;;;;8.53;71.82422;939.0369;;;;
2021/04/19 06:57:27;;;;;;;8.9;5.9;;;;;;;8.5;72.10352;938.9238;;;;
2021/04/19 06:59:53;;;;;;;10.1;6.3;;;;;;;8.65;70.42285;938.9648;;;;
2021/04/19 07:02:18;;;;;;;8.1;5.6;;;;;;;8.55;71.79297;938.8819;;;;
2021/04/19 07:04:43;;;;;;;8;5.5;;;;;;;8.39;71.33594;938.9802;;;;
2021/04/19 07:07:08;;;;;;;8.5;5.9;;;;;;;8.43;71.39844;938.936;;;;
2021/04/19 07:09:35;;;;;;;10.5;6.4;;;;;;;8.29;71.30859;938.9241;;;;
2021/04/19 07:12:00;;;;;;;13.8;6.3;;;;;;;8.08;71.55762;938.8603;;;;
2021/04/19 07:14:25;;;;;;;9.4;6.5;;;;;;;8.45;72.40332;938.8714;;;;
2021/04/19 07:16:50;;;;;;;8.4;5.2;;;;;;;8.65;72.13965;938.8901;;;;
2021/04/19 07:19:16;;;;;;;8.2;6;;;;;;;8.59;70.86719;938.907;;;;
2021/04/19 07:21:41;;;;;;;7.9;5;;;;;;;8.93;69.94531;938.85;;;;
2021/04/19 07:24:08;;;;;;;10.3;4.4;;;;;;;9.27;70.57031;938.8925;;;;
2021/04/19 07:26:33;;;;;;;10.4;5.3;;;;;;;9.1;70.88379;938.8807;;;;
2021/04/19 07:28:58;;;;;;;8.9;5.5;;;;;;;9.69;66.76563;938.829;;;;
2021/04/19 07:31:24;;;;;;;5.1;4.1;;;;;;;9.83;63.04785;938.8542;;;;
2021/04/19 07:33:49;;;;;;;9.5;4.8;;;;;;;10.08;60.72266;938.8011;;;;
2021/04/19 07:36:14;;;;;;;6.7;4;;;;;;;10.32;62.20605;938.8212;;;;
2021/04/19 07:38:39;;;;;;;11.3;4.9;;;;;;;10.66;63.16895;938.819;;;;
2021/04/19 07:41:06;;;;;;;4.9;3.1;;;;;;;10.96;61.31641;938.8022;;;;
2021/04/19 07:43:32;;;;;;;5.7;3.7;;;;;;;10.46;61.00391;938.6575;;;;
2021/04/19 07:45:57;;;;;;;5;3.9;;;;;;;10.73;62.15039;938.7137;;;;
2021/04/19 07:48:22;;;;;;;7.2;3.8;;;;;;;10.54;62.59082;938.757;;;;
2021/04/19 07:50:47;;;;;;;4.2;3.3;;;;;;;11.09;57.85938;938.7509;;;;
2021/04/19 07:53:12;;;;;;;3;2.4;;;;;;;11.21;56.05566;938.6203;;;;
2021/04/19 07:55:38;;;;;;;3.8;2.8;;;;;;;11.36;56.4082;938.6376;;;;
2021/04/19 07:58:03;;;;;;;5.4;3.4;;;;;;;11.58;54.05566;938.6498;;;;
2021/04/19 08:00:30;;;;;;;4.4;2.3;;;;;;;11.48;55.33594;938.6483;;;;
2021/04/19 08:02:54;;;;;;;3.7;2.4;;;;;;;11.56;54.29395;938.5986;;;;
2021/04/19 08:05:19;;;;;;;3.8;2.2;;;;;;;11.45;55.52637;938.5947;;;;
2021/04/19 08:07:45;;;;;;;3.8;3.1;;;;;;;11.17;56.06152;938.6423;;;;
2021/04/19 08:10:10;;;;;;;4;2.2;;;;;;;10.72;57.20313;938.6571;;;;
2021/04/19 08:12:39;;;;;;;4.8;2.6;;;;;;;10.86;57.1543;938.6284;;;;
2021/04/19 08:15:04;;;;;;;5.7;2.5;;;;;;;10.34;58.24805;938.679;;;;
2021/04/19 08:17:29;;;;;;;3.9;2.4;;;;;;;10.58;59.13867;938.7009;;;;
2021/04/19 08:19:54;;;;;;;6.1;2.7;;;;;;;10.5;57.56348;938.7137;;;;
2021/04/19 08:22:19;;;;;;;3.2;2.7;;;;;;;10.85;57.92871;938.6992;;;;
2021/04/19 08:24:44;;;;;;;2.9;2.5;;;;;;;10.97;56.45898;938.6978;;;;
2021/04/19 08:27:09;;;;;;;4.3;2.6;;;;;;;11.18;56.04102;938.6312;;;;
2021/04/19 08:29:34;;;;;;;4.1;2.7;;;;;;;11.59;55.14355;938.6378;;;;
2021/04/19 08:32:01;;;;;;;4.1;1.9;;;;;;;11.71;53.69336;938.6172;;;;
2021/04/19 08:34:26;;;;;;;6.7;3.9;;;;;;;11.66;52.74902;938.5987;;;;
2021/04/19 08:36:53;;;;;;;2.7;2;;;;;;;11.34;54.05957;938.5785;;;;
2021/04/19 08:39:18;;;;;;;2.5;1.5;;;;;;;12.3;51.25586;938.6091;;;;
2021/04/19 08:41:45;;;;;;;4.9;2.2;;;;;;;12.09;50.39453;938.5856;;;;
2021/04/19 08:44:10;;;;;;;5.4;1.9;;;;;;;11.73;50.1709;938.6102;;;;
2021/04/19 08:46:35;;;;;;;4.3;1.6;;;;;;;12.04;51.22559;938.6142;;;;
2021/04/19 08:49:01;;;;;;;3.3;1.9;;;;;;;12.9;49.3291;938.5848;;;;
2021/04/19 08:51:26;;;;;;;2.2;1.6;;;;;;;13.99;46.72559;938.5165;;;;
2021/04/19 08:53:51;;;;;;;3.6;1.5;;;;;;;14.8;43.8252;938.5269;;;;
2021/04/19 08:56:16;;;;;;;2.8;1.8;;;;;;;15.15;41.71484;938.5122;;;;
2021/04/19 08:58:43;;;;;;;6;1.9;;;;;;;15.79;40.27344;938.5131;;;;
2021/04/19 09:01:07;;;;;;;2.2;1.4;;;;;;;16.63;41.66992;938.4919;;;;
2021/04/19 09:03:34;;;;;;;3.7;1.9;;;;;;;18.26;38.88477;938.4331;;;;
2021/04/19 09:05:59;;;;;;;2.6;1.6;;;;;;;17.75;36.80859;938.4981;;;;
2021/04/19 09:08:27;;;;;;;2.2;1.4;;;;;;;17.04;38.71973;938.4338;;;;
2021/04/19 09:10:52;;;;;;;3.3;1.4;;;;;;;15.41;41.30078;938.4228;;;;
2021/04/19 09:13:18;;;;;;;2.2;1.5;;;;;;;15.61;41.13379;938.4031;;;;
2021/04/19 09:15:43;;;;;;;2;1.5;;;;;;;14.99;39.32324;938.3879;;;;
2021/04/19 09:18:08;;;;;;;1.7;1.3;;;;;;;14.33;46.05859;938.3908;;;;
2021/04/19 09:20:34;;;;;;;1.8;1.4;;;;;;;14.45;44.20605;938.414;;;;
2021/04/19 09:22:58;;;;;;;1.7;1.5;;;;;;;15.46;40.91211;938.2942;;;;
2021/04/19 09:25:24;;;;;;;3.1;1.6;;;;;;;15.61;38.87109;938.2947;;;;
2021/04/19 09:27:49;;;;;;;4.5;1.9;;;;;;;15.51;40.27051;938.2424;;;;
2021/04/19 09:30:35;;;;;;;2.4;1.5;;;;;;;15.49;40.37305;938.1864;;;;
2021/04/19 09:32:58;;;;;;;2.4;1.8;;;;;;;15.58;40.83203;938.2031;;;;
2021/04/19 09:35:26;;;;;;;1.1;1;;;;;;;16.37;39.21582;938.1129;;;;
2021/04/19 09:37:51;;;;;;;1.4;1.2;;;;;;;17.22;36.3125;938.1456;;;;
2021/04/19 09:40:16;;;;;;;1.4;1.3;;;;;;;17.71;35.59863;938.0792;;;;
2021/04/19 09:42:41;;;;;;;2.4;1.4;;;;;;;18.94;34.06836;938.0607;;;;
2021/04/19 09:45:07;;;;;;;1.1;1;;;;;;;19.73;32.36914;938.0758;;;;
2021/04/19 09:47:33;;;;;;;2;1.3;;;;;;;18.01;35.55273;938.0352;;;;
2021/04/19 09:49:59;;;;;;;2.8;1.1;;;;;;;17.08;35.91797;938.0131;;;;
2021/04/19 09:52:24;;;;;;;1.5;1;;;;;;;17.29;38.21973;937.9609;;;;
2021/04/19 09:54:50;;;;;;;1.6;1.2;;;;;;;17.47;37.05273;937.9476;;;;
2021/04/19 09:57:15;;;;;;;1.2;1.1;;;;;;;18.04;35.05566;937.9632;;;;
2021/04/19 09:59:44;;;;;;;1.2;1;;;;;;;16.79;34.5752;937.9767;;;;
2021/04/19 10:02:09;;;;;;;1.6;1.1;;;;;;;14.9;40.01953;937.9026;;;;
2021/04/19 10:04:35;;;;;;;1.2;1;;;;;;;14.18;40.77051;937.9691;;;;
2021/04/19 10:07:00;;;;;;;2.3;1.4;;;;;;;14.14;42.01074;937.9597;;;;
2021/04/19 10:09:27;;;;;;;1.4;1.2;;;;;;;14.51;41.30762;937.9578;;;;
2021/04/19 10:11:52;;;;;;;1.7;1.1;;;;;;;14.86;39.93457;937.9536;;;;
2021/04/19 10:14:18;;;;;;;0.9;0.6;;;;;;;15.38;36.63281;937.9954;;;;
2021/04/19 10:16:43;;;;;;;0.7;0.7;;;;;;;14.4;38.1875;937.9626;;;;
2021/04/19 10:19:08;;;;;;;1;0.6;;;;;;;14.66;37.02246;937.9955;;;;
2021/04/19 10:21:34;;;;;;;0.6;0.6;;;;;;;14.53;37.18457;937.9336;;;;
2021/04/19 10:23:58;;;;;;;2;0.6;;;;;;;14.51;36.60645;937.9249;;;;
2021/04/19 10:26:25;;;;;;;1.1;1;;;;;;;14;38.73926;937.8736;;;;
2021/04/19 10:28:50;;;;;;;2.2;0.7;;;;;;;13.56;40.66602;937.9305;;;;
2021/04/19 10:31:15;;;;;;;0.9;0.7;;;;;;;13.33;40.4834;937.926;;;;
2021/04/19 10:33:41;;;;;;;0.8;0.8;;;;;;;13.25;39.84473;937.8925;;;;
2021/04/19 10:36:06;;;;;;;2.5;1;;;;;;;12.7;43.84473;937.914;;;;
2021/04/19 10:38:31;;;;;;;0.8;0.7;;;;;;;12.42;42.8418;937.8103;;;;
2021/04/19 10:40:59;;;;;;;1.5;0.9;;;;;;;12.71;45.39551;937.8636;;;;
2021/04/19 10:43:25;;;;;;;1.3;0.8;;;;;;;12.78;43.2334;937.8525;;;;
2021/04/19 10:45:50;;;;;;;0.6;0.6;;;;;;;12.61;43.92773;937.8042;;;;
2021/04/19 10:48:15;;;;;;;0.8;0.8;;;;;;;12.38;45.64648;937.8068;;;;
2021/04/19 10:50:41;;;;;;;0.8;0.8;;;;;;;11.93;46.91797;937.8434;;;;
2021/04/19 10:53:05;;;;;;;1.4;0.7;;;;;;;11.94;46.64258;937.849;;;;
2021/04/19 10:55:31;;;;;;;1.8;1;;;;;;;12.02;45.44922;937.8544;;;;
2021/04/19 10:57:56;;;;;;;0.5;0.5;;;;;;;12.12;47.24707;937.8108;;;;
2021/04/19 11:00:22;;;;;;;1.7;0.7;;;;;;;12.23;45.10352;937.7969;;;;
2021/04/19 11:02:47;;;;;;;1.1;0.9;;;;;;;12.58;45.34668;937.8017;;;;
2021/04/19 11:05:13;;;;;;;0.7;0.6;;;;;;;12.69;44.64746;937.747;;;;
2021/04/19 11:07:40;;;;;;;1;0.6;;;;;;;11.83;45.35938;937.7625;;;;
2021/04/19 11:10:05;;;;;;;0.8;0.6;;;;;;;11.41;48.85156;937.7992;;;;
2021/04/19 11:12:31;;;;;;;0.8;0.8;;;;;;;11.2;48.54199;937.7635;;;;
2021/04/19 11:14:56;;;;;;;3;0.9;;;;;;;11.67;47.88477;937.7461;;;;
2021/04/19 11:17:21;;;;;;;3.3;0.8;;;;;;;11.46;46.46484;937.7472;;;;
2021/04/19 11:19:48;;;;;;;1.5;0.9;;;;;;;11.89;47.16504;937.7395;;;;
2021/04/19 11:22:13;;;;;;;1.5;1.1;;;;;;;12.04;46.30957;937.7084;;;;
2021/04/19 11:24:39;;;;;;;0.9;0.8;;;;;;;12.21;44.87305;937.6333;;;;
2021/04/19 11:27:07;;;;;;;2.2;1.1;;;;;;;12.76;43.62109;937.6248;;;;
2021/04/19 11:29:32;;;;;;;0.9;0.7;;;;;;;13.35;44.8291;937.5676;;;;
2021/04/19 11:32:00;;;;;;;1.2;0.8;;;;;;;13.92;41.5625;937.5945;;;;
2021/04/19 11:34:27;;;;;;;0.5;0.5;;;;;;;13.52;40.52441;937.5458;;;;
2021/04/19 11:36:51;;;;;;;0.7;0.7;;;;;;;13.37;41.94727;937.5564;;;;
2021/04/19 11:39:18;;;;;;;1;0.9;;;;;;;13.75;41.71875;937.5173;;;;
2021/04/19 11:41:43;;;;;;;0.8;0.5;;;;;;;14.1;39.64648;937.4947;;;;
2021/04/19 11:44:09;;;;;;;0.5;0.5;;;;;;;13.62;41.45313;937.4914;;;;
2021/04/19 11:46:34;;;;;;;2.7;0.8;;;;;;;13.41;40.99707;937.4443;;;;
2021/04/19 11:48:59;;;;;;;1.2;0.7;;;;;;;13.02;42.70508;937.4309;;;;
2021/04/19 11:51:25;;;;;;;1.1;0.9;;;;;;;12.87;43.5166;937.4804;;;;
2021/04/19 11:53:51;;;;;;;0.5;0.5;;;;;;;13.37;42.31543;937.4772;;;;
2021/04/19 11:56:16;;;;;;;1.6;0.6;;;;;;;14.3;41.93262;937.4625;;;;
2021/04/19 11:58:41;;;;;;;0.7;0.6;;;;;;;15.76;38.30664;937.4103;;;;
2021/04/19 12:01:09;;;;;;;1.2;0.8;;;;;;;17.06;33.69141;937.3304;;;;
2021/04/19 12:03:33;;;;;;;0.7;0.6;;;;;;;17.47;32.60938;937.3318;;;;
2021/04/19 12:06:01;;;;;;;0.6;0.6;;;;;;;17.65;32.29785;937.2545;;;;
2021/04/19 12:08:24;;;;;;;4;0.8;;;;;;;17.77;31.74902;937.2784;;;;
2021/04/19 12:10:50;;;;;;;0.7;0.7;;;;;;;17.69;32.625;937.2333;;;;
2021/04/19 12:13:15;;;;;;;2.6;0.6;;;;;;;17.58;31.31738;937.2548;;;;
2021/04/19 12:15:42;;;;;;;1.2;0.4;;;;;;;17.29;31.2627;937.2478;;;;
2021/04/19 12:18:07;;;;;;;1.1;0.7;;;;;;;17.58;31.75879;937.2072;;;;
2021/04/19 12:20:32;;;;;;;1.6;0.9;;;;;;;17.84;33.43848;937.1595;;;;
2021/04/19 12:22:57;;;;;;;0.5;0.5;;;;;;;17.69;32.5791;937.1551;;;;
2021/04/19 12:25:22;;;;;;;0.7;0.7;;;;;;;16.92;34.02832;937.1909;;;;
2021/04/19 12:27:47;;;;;;;1.6;1;;;;;;;16.47;35.92578;937.1578;;;;
2021/04/19 12:30:13;;;;;;;0.7;0.7;;;;;;;15.84;37.41211;937.204;;;;
2021/04/19 12:32:38;;;;;;;1.5;1.1;;;;;;;15.61;38.97363;937.1445;;;;
2021/04/19 12:35:06;;;;;;;1.4;1;;;;;;;15.47;38.73047;937.1642;;;;
2021/04/19 12:37:31;;;;;;;1;0.9;;;;;;;15.37;39.51953;937.1915;;;;
2021/04/19 12:40:00;;;;;;;1.4;0.9;;;;;;;14.87;41.22656;937.1958;;;;
2021/04/19 12:42:26;;;;;;;1;0.9;;;;;;;15.32;40.1377;937.1415;;;;
2021/04/19 12:44:51;;;;;;;1.9;0.9;;;;;;;15.57;39.80273;937.0916;;;;
2021/04/19 12:47:16;;;;;;;0.7;0.7;;;;;;;15.24;40.30371;937.1239;;;;
2021/04/19 12:49:43;;;;;;;1.6;1.1;;;;;;;15.29;40.62012;937.1337;;;;
2021/04/19 12:52:09;;;;;;;1.1;0.8;;;;;;;15.22;39.77148;937.177;;;;
2021/04/19 12:54:34;;;;;;;1.5;1;;;;;;;14.69;40.80664;937.1208;;;;
2021/04/19 12:57:01;;;;;;;1.2;1;;;;;;;14.05;40.13574;937.1091;;;;
2021/04/19 12:59:26;;;;;;;1;0.8;;;;;;;14.28;40.57227;937.087;;;;
2021/04/19 13:01:53;;;;;;;2.4;1.4;;;;;;;14;43.22754;937.141;;;;
2021/04/19 13:04:18;;;;;;;5.6;1.1;;;;;;;13.66;44.55078;937.1264;;;;
2021/04/19 13:06:43;;;;;;;1.3;0.9;;;;;;;13.66;42.27441;937.1192;;;;
2021/04/19 13:09:09;;;;;;;1.4;1.2;;;;;;;13.96;41.86621;937.0291;;;;
2021/04/19 13:11:35;;;;;;;2.7;1.3;;;;;;;14.28;40.2959;936.9764;;;;
2021/04/19 13:14:01;;;;;;;2.8;1.1;;;;;;;14.6;39.96777;936.9771;;;;
2021/04/19 13:16:26;;;;;;;1.7;1.1;;;;;;;14.33;42.91504;936.8929;;;;
2021/04/19 13:18:51;;;;;;;1.2;0.8;;;;;;;14.13;40.59277;936.8652;;;;
2021/04/19 13:21:16;;;;;;;1.5;1.3;;;;;;;13.96;42.13086;936.8386;;;;
2021/04/19 13:23:42;;;;;;;1.6;1.1;;;;;;;14.74;39.56543;936.8423;;;;
2021/04/19 13:26:08;;;;;;;2.2;0.8;;;;;;;14.88;38.06836;936.8085;;;;
2021/04/19 13:28:33;;;;;;;1.2;0.8;;;;;;;14.8;38.80957;936.7737;;;;
2021/04/19 13:30:58;;;;;;;0.8;0.7;;;;;;;14.7;39.5625;936.7338;;;;
2021/04/19 13:33:24;;;;;;;1.1;1;;;;;;;14.42;38.7998;936.7403;;;;
2021/04/19 13:35:49;;;;;;;1.4;0.7;;;;;;;14.52;39.31543;936.7269;;;;
2021/04/19 13:38:14;;;;;;;0.7;0.6;;;;;;;14.64;40.38574;936.7535;;;;
2021/04/19 13:40:40;;;;;;;1.3;0.9;;;;;;;15.09;38.89453;936.7128;;;;
2021/04/19 13:43:05;;;;;;;1.4;0.9;;;;;;;15.21;37.12793;936.6041;;;;
2021/04/19 13:45:32;;;;;;;0.6;0.6;;;;;;;15.54;38.64551;936.6169;;;;
2021/04/19 13:47:57;;;;;;;0.5;0.5;;;;;;;15.73;36.18848;936.6336;;;;
2021/04/19 13:50:23;;;;;;;0.9;0.8;;;;;;;15.75;36.48047;936.6501;;;;
2021/04/19 13:52:48;;;;;;;1.7;1.2;;;;;;;15.55;36.80957;936.5237;;;;
2021/04/19 13:55:14;;;;;;;0.9;0.7;;;;;;;15.75;35.69434;936.4414;;;;
2021/04/19 13:57:39;;;;;;;1.4;0.9;;;;;;;15.71;39.39941;936.4973;;;;
2021/04/19 14:00:07;;;;;;;0.6;0.6;;;;;;;15.24;41.01953;936.5408;;;;
2021/04/19 14:02:32;;;;;;;1.1;0.8;;;;;;;15.37;38.12207;936.4927;;;;
2021/04/19 14:04:59;;;;;;;0.7;0.7;;;;;;;15.26;37.83496;936.5269;;;;
2021/04/19 14:07:23;;;;;;;1.3;1.1;;;;;;;14.89;38.4834;936.4557;;;;
2021/04/19 14:09:50;;;;;;;0.7;0.6;;;;;;;14.56;39.1582;936.5327;;;;
2021/04/19 14:12:15;;;;;;;1.6;1.2;;;;;;;14.54;39.01758;936.5401;;;;
2021/04/19 14:14:40;;;;;;;0.9;0.6;;;;;;;14.27;40.05371;936.5;;;;
2021/04/19 14:17:07;;;;;;;1.2;0.9;;;;;;;14.11;39.60059;936.4953;;;;
2021/04/19 14:19:32;;;;;;;1.7;1.1;;;;;;;14.01;40.40918;936.4916;;;;
2021/04/19 14:21:58;;;;;;;0.8;0.7;;;;;;;13.88;40.75293;936.5262;;;;
2021/04/19 14:24:23;;;;;;;1.3;0.9;;;;;;;13.8;41.56348;936.5375;;;;
2021/04/19 14:26:49;;;;;;;0.7;0.7;;;;;;;13.53;41.65332;936.4747;;;;
2021/04/19 14:29:14;;;;;;;1.4;1;;;;;;;13.35;42.07227;936.5048;;;;
2021/04/19 14:31:40;;;;;;;1.1;0.9;;;;;;;13.57;41.08105;936.4928;;;;
2021/04/19 14:34:05;;;;;;;1.4;1;;;;;;;13.66;41.19336;936.5335;;;;
2021/04/19 14:36:32;;;;;;;1.6;1;;;;;;;13.73;39.81934;936.4739;;;;
2021/04/19 14:38:57;;;;;;;0.6;0.6;;;;;;;13.91;39.16895;936.4579;;;;
2021/04/19 14:41:23;;;;;;;0.8;0.8;;;;;;;14.25;38.11719;936.3736;;;;
2021/04/19 14:43:48;;;;;;;0.7;0.7;;;;;;;14.45;39.27539;936.4464;;;;
2021/04/19 14:46:14;;;;;;;3.3;0.9;;;;;;;14.52;39.28125;936.4377;;;;
2021/04/19 14:48:39;;;;;;;3.7;1.4;;;;;;;14.17;43.16406;936.4933;;;;
2021/04/19 14:51:04;;;;;;;13.1;2.2;;;;;;;13.63;44.76758;936.5168;;;;
2021/04/19 14:53:29;;;;;;;2.3;1.5;;;;;;;12.99;46.6416;936.5515;;;;
2021/04/19 14:55:59;;;;;;;2.4;1.6;;;;;;;12.87;47.95996;936.551;;;;
2021/04/19 14:58:30;;;;;;;3.6;1.5;;;;;;;12.92;46.2207;936.5756;;;;
2021/04/19 15:00:55;;;;;;;1.1;1;;;;;;;13.15;44.90137;936.64;;;;
2021/04/19 15:03:22;;;;;;;2.1;1.1;;;;;;;13.2;44.61914;936.649;;;;
2021/04/19 15:05:47;;;;;;;3.7;1.7;;;;;;;13.19;45.16992;936.6898;;;;
2021/04/19 15:08:12;;;;;;;14.3;1.1;;;;;;;13.16;45.68359;936.7175;;;;
2021/04/19 15:10:37;;;;;;;1.1;0.9;;;;;;;12.99;46.14746;936.8264;;;;
2021/04/19 15:13:02;;;;;;;2;1.4;;;;;;;12.88;47.77637;936.9514;;;;
2021/04/19 15:15:27;;;;;;;5.5;1.3;;;;;;;12.48;50.65723;936.8817;;;;
2021/04/19 15:17:54;;;;;;;2.5;1.3;;;;;;;11.76;53.20801;936.9543;;;;
2021/04/19 15:20:19;;;;;;;1.3;1.2;;;;;;;11.37;55.96289;936.946;;;;
2021/04/19 15:22:44;;;;;;;2.7;1.4;;;;;;;10.49;59.93555;936.9916;;;;
2021/04/19 15:25:11;;;;;;;1.5;1;;;;;;;9.76;61.9082;936.9797;;;;
2021/04/19 15:27:36;;;;;;;1.1;0.9;;;;;;;9.33;62.75879;937.1063;;;;
2021/04/19 15:30:01;;;;;;;0.7;0.7;;;;;;;9.59;62.56934;937.1644;;;;
2021/04/19 15:32:27;;;;;;;0.8;0.8;;;;;;;9.26;64.20508;937.2374;;;;